createdAt,value
2018-02-17T00:02:07.595Z,73.51
2018-02-17T00:04:37.279Z,73.58
2018-02-17T00:07:07.275Z,73.71
2018-02-17T00:09:37.400Z,73.85
2018-02-17T00:12:08.161Z,73.55
2018-02-17T00:14:38.043Z,73.19
2018-02-17T00:17:08.369Z,73.39
2018-02-17T00:19:39.641Z,73.56
2018-02-17T00:22:10.247Z,73.40
2018-02-17T00:24:39.839Z,73.62
2018-02-17T00:27:09.621Z,73.56
2018-02-17T00:29:40.825Z,73.62
2018-02-17T00:32:11.014Z,73.63
2018-02-17T00:34:40.992Z,73.59
2018-02-17T00:37:11.988Z,73.53
2018-02-17T00:39:42.238Z,73.70
2018-02-17T00:42:12.676Z,73.93
2018-02-17T00:44:42.781Z,73.78
2018-02-17T00:47:12.664Z,73.79
2018-02-17T00:49:42.319Z,73.87
2018-02-17T00:52:13.028Z,73.75
2018-02-17T00:54:42.587Z,73.54
2018-02-17T00:57:12.591Z,73.59
2018-02-17T00:59:42.839Z,73.62
2018-02-17T01:02:13.593Z,73.79
2018-02-17T01:04:43.399Z,73.64
2018-02-17T01:07:13.390Z,73.58
2018-02-17T01:09:43.874Z,73.51
2018-02-17T01:12:13.633Z,73.60
2018-02-17T01:14:43.957Z,73.58
2018-02-17T01:17:13.806Z,73.82
2018-02-17T01:19:43.564Z,74.13
2018-02-17T01:22:13.538Z,73.97
2018-02-17T01:24:43.240Z,73.84
2018-02-17T01:27:12.878Z,73.70
2018-02-17T01:29:42.993Z,73.75
2018-02-17T01:32:13.169Z,73.83
2018-02-17T01:34:43.126Z,73.87
2018-02-17T01:37:13.202Z,73.90
2018-02-17T01:39:43.378Z,74.10
2018-02-17T01:42:13.335Z,74.00
2018-02-17T01:44:43.500Z,74.06
2018-02-17T01:47:13.166Z,73.98
2018-02-17T01:49:42.896Z,73.73
2018-02-17T01:52:14.168Z,73.65
2018-02-17T01:54:43.940Z,73.77
2018-02-17T01:57:14.347Z,73.93
2018-02-17T01:59:44.020Z,74.13
2018-02-17T02:02:13.780Z,74.19
2018-02-17T02:04:43.662Z,74.04
2018-02-17T02:07:14.039Z,74.26
2018-02-17T02:09:44.259Z,74.34
2018-02-17T02:12:14.072Z,74.45
2018-02-17T02:14:44.378Z,74.15
2018-02-17T02:17:14.497Z,74.24
2018-02-17T02:19:44.223Z,74.28
2018-02-17T02:22:14.132Z,74.14
2018-02-17T02:24:45.042Z,74.17
2018-02-17T02:27:14.869Z,74.11
2018-02-17T02:29:44.824Z,74.17
2018-02-17T02:32:14.985Z,74.11
2018-02-17T02:34:44.709Z,74.05
2018-02-17T02:37:14.418Z,74.25
2018-02-17T02:39:44.706Z,74.17
2018-02-17T02:42:14.495Z,74.13
2018-02-17T02:44:44.198Z,74.11
2018-02-17T02:47:14.965Z,74.00
2018-02-17T02:49:44.631Z,73.93
2018-02-17T02:52:14.507Z,73.93
2018-02-17T02:54:44.659Z,73.98
2018-02-17T02:57:14.547Z,73.95
2018-02-17T02:59:44.379Z,74.02
2018-02-17T03:02:14.162Z,74.49
2018-02-17T03:04:43.699Z,74.31
2018-02-17T03:07:13.903Z,74.11
2018-02-17T03:09:44.959Z,73.96
2018-02-17T03:12:15.708Z,74.14
2018-02-17T03:14:45.638Z,74.35
2018-02-17T03:17:15.197Z,74.09
2018-02-17T03:19:45.456Z,73.82
2018-02-17T03:22:16.107Z,73.58
2018-02-17T03:24:46.769Z,73.38
2018-02-17T03:27:16.758Z,73.29
2018-02-17T03:29:46.922Z,73.28
2018-02-17T03:32:17.684Z,73.42
2018-02-17T03:34:47.604Z,73.45
2018-02-17T03:37:17.530Z,73.20
2018-02-17T03:39:48.161Z,72.94
2018-02-17T03:42:17.901Z,72.84
2018-02-17T03:44:47.603Z,72.44
2018-02-17T03:47:17.800Z,72.68
2018-02-17T03:49:48.654Z,72.86
2018-02-17T03:52:18.523Z,72.93
2018-02-17T03:54:48.585Z,72.88
2018-02-17T03:57:18.246Z,73.01
2018-02-17T03:59:48.762Z,73.00
2018-02-17T04:02:18.784Z,73.02
2018-02-17T04:04:48.620Z,73.05
2018-02-17T04:07:18.302Z,73.01
2018-02-17T04:09:48.296Z,72.99
2018-02-17T04:12:18.138Z,73.03
2018-02-17T04:14:48.109Z,73.11
2018-02-17T04:17:17.973Z,73.11
2018-02-17T04:19:48.804Z,73.08
2018-02-17T04:22:18.327Z,73.09
2018-02-17T04:24:49.105Z,73.21
2018-02-17T04:27:19.363Z,73.23
2018-02-17T04:29:49.549Z,73.18
2018-02-17T04:32:18.956Z,73.16
2018-02-17T04:34:48.896Z,73.25
2018-02-17T04:37:18.420Z,73.32
2018-02-17T04:39:49.422Z,73.29
2018-02-17T04:42:19.787Z,73.33
2018-02-17T04:44:49.538Z,73.38
2018-02-17T04:47:19.323Z,73.36
2018-02-17T04:49:49.805Z,73.54
2018-02-17T04:52:19.724Z,73.90
2018-02-17T04:54:49.692Z,73.69
2018-02-17T04:57:19.659Z,73.48
2018-02-17T04:59:49.648Z,73.29
2018-02-17T05:02:21.003Z,73.08
2018-02-17T05:04:52.365Z,72.94
2018-02-17T05:07:22.329Z,72.78
2018-02-17T05:09:52.155Z,72.37
2018-02-17T05:12:21.924Z,72.21
2018-02-17T05:14:52.001Z,72.19
2018-02-17T05:17:23.042Z,72.19
2018-02-17T05:19:53.517Z,72.17
2018-02-17T05:22:23.215Z,72.10
2018-02-17T05:24:53.049Z,72.04
2018-02-17T05:27:23.092Z,72.10
2018-02-17T05:29:53.050Z,71.83
2018-02-17T05:32:23.129Z,71.71
2018-02-17T05:34:55.982Z,71.58
2018-02-17T05:37:25.906Z,71.52
2018-02-17T05:39:57.616Z,71.48
2018-02-17T05:42:32.493Z,71.45
2018-02-17T05:45:02.461Z,71.35
2018-02-17T05:47:35.920Z,71.42
2018-02-17T05:50:06.253Z,71.44
2018-02-17T05:58:33.889Z,71.51
2018-02-17T06:01:04.654Z,71.36
2018-02-17T06:03:34.241Z,71.32
2018-02-17T06:06:04.347Z,71.28
2018-02-17T06:08:33.889Z,71.19
2018-02-17T06:11:04.025Z,70.95
2018-02-17T06:13:33.838Z,70.76
2018-02-17T06:16:03.563Z,70.79
2018-02-17T06:18:36.139Z,70.64
2018-02-17T06:21:06.089Z,70.86
2018-02-17T06:23:35.796Z,70.74
2018-02-17T06:26:12.759Z,70.64
2018-02-17T06:28:47.030Z,70.47
2018-02-17T06:31:16.739Z,70.35
2018-02-17T06:33:46.787Z,70.23
2018-02-17T06:36:16.279Z,70.09
2018-02-17T06:38:46.573Z,70.22
2018-02-17T06:41:17.888Z,70.25
2018-02-17T06:43:49.192Z,70.04
2018-02-17T06:46:20.099Z,69.74
2018-02-17T06:48:49.665Z,69.87
2018-02-17T06:51:20.093Z,69.80
2018-02-17T06:53:49.993Z,69.52
2018-02-17T06:56:19.662Z,69.25
2018-02-17T06:58:49.584Z,69.14
2018-02-17T07:01:19.610Z,69.25
2018-02-17T07:03:49.947Z,69.00
2018-02-17T07:06:19.713Z,68.52
2018-02-17T07:08:49.434Z,68.27
2018-02-17T07:11:19.080Z,68.30
2018-02-17T07:13:48.672Z,68.20
2018-02-17T07:16:18.468Z,68.02
2018-02-17T07:18:48.252Z,67.63
2018-02-17T07:21:18.222Z,67.10
2018-02-17T07:23:47.968Z,66.77
2018-02-17T07:26:18.002Z,66.73
2018-02-17T07:28:47.724Z,66.63
2018-02-17T07:31:17.900Z,66.13
2018-02-17T07:33:47.641Z,65.64
2018-02-17T07:36:17.081Z,65.53
2018-02-17T07:38:46.945Z,65.41
2018-02-17T07:41:16.340Z,65.45
2018-02-17T07:43:45.881Z,65.14
2018-02-17T07:46:16.430Z,64.73
2018-02-17T07:48:46.970Z,64.32
2018-02-17T07:51:18.380Z,64.15
2018-02-17T07:53:48.604Z,63.89
2018-02-17T07:56:19.141Z,64.12
2018-02-17T07:58:49.467Z,64.19
2018-02-17T08:01:18.860Z,63.43
2018-02-17T08:03:48.801Z,63.09
2018-02-17T08:06:20.267Z,64.22
2018-02-17T08:08:50.829Z,63.95
2018-02-17T08:11:21.259Z,63.66
2018-02-17T08:13:56.060Z,64.36
2018-02-17T08:16:32.937Z,64.72
2018-02-17T08:19:05.006Z,64.58
2018-02-17T08:21:34.438Z,65.07
2018-02-17T08:24:04.203Z,65.12
2018-02-17T08:26:34.088Z,65.60
2018-02-17T08:29:04.499Z,65.33
2018-02-17T08:31:35.622Z,65.36
2018-02-17T08:34:08.353Z,64.87
2018-02-17T08:36:40.511Z,64.92
2018-02-17T08:39:11.129Z,64.33
2018-02-17T08:41:41.958Z,63.95
2018-02-17T08:44:12.422Z,64.04
2018-02-17T08:46:43.077Z,64.30
2018-02-17T08:49:13.055Z,63.64
2018-02-17T08:51:45.893Z,63.06
2018-02-17T08:54:16.588Z,61.83
2018-02-17T08:56:46.969Z,60.80
2018-02-17T08:59:18.948Z,59.80
2018-02-17T09:01:48.995Z,59.70
2018-02-17T09:04:21.873Z,59.58
2018-02-17T09:06:52.134Z,60.13
2018-02-17T09:09:24.896Z,60.81
2018-02-17T09:11:54.909Z,60.92
2018-02-17T09:14:24.942Z,61.31
2018-02-17T09:16:55.175Z,61.54
2018-02-17T09:19:27.355Z,62.16
2018-02-17T09:21:57.568Z,62.40
2018-02-17T09:24:27.096Z,61.26
2018-02-17T09:26:58.883Z,60.27
2018-02-17T09:29:33.002Z,61.93
2018-02-17T09:32:02.478Z,62.41
2018-02-17T09:34:32.210Z,61.47
2018-02-17T09:37:02.149Z,60.16
2018-02-17T09:39:33.614Z,60.80
2018-02-17T09:42:06.489Z,61.05
2018-02-17T09:44:37.438Z,60.54
2018-02-17T09:47:06.954Z,60.46
2018-02-17T09:49:36.879Z,60.91
2018-02-17T09:52:07.473Z,60.77
2018-02-17T09:54:37.880Z,60.14
2018-02-17T09:57:08.090Z,59.92
2018-02-17T09:59:38.994Z,60.22
2018-02-17T10:02:08.678Z,59.50
2018-02-17T10:04:40.966Z,59.72
2018-02-17T10:07:11.586Z,60.36
2018-02-17T10:09:41.118Z,60.20
2018-02-17T10:12:10.553Z,59.90
2018-02-17T10:14:40.680Z,59.78
2018-02-17T10:17:10.847Z,60.25
2018-02-17T10:19:40.370Z,60.79
2018-02-17T10:22:11.765Z,60.97
2018-02-17T10:24:41.794Z,60.75
2018-02-17T10:27:12.753Z,60.47
2018-02-17T10:29:42.911Z,60.82
2018-02-17T10:32:12.350Z,60.43
2018-02-17T10:34:41.954Z,60.09
2018-02-17T10:37:11.793Z,59.32
2018-02-17T10:39:41.474Z,59.72
2018-02-17T10:42:10.995Z,59.61
2018-02-17T10:44:40.769Z,58.47
2018-02-17T10:47:13.063Z,58.36
2018-02-17T10:49:42.529Z,58.16
2018-02-17T10:52:14.114Z,58.60
2018-02-17T10:54:44.482Z,58.26
2018-02-17T10:57:16.429Z,58.43
2018-02-17T10:59:46.248Z,58.44
2018-02-17T11:02:15.774Z,57.93
2018-02-17T11:04:45.710Z,57.31
2018-02-17T11:07:15.661Z,57.57
2018-02-17T11:09:47.829Z,58.32
2018-02-17T11:12:18.052Z,58.79
2018-02-17T11:14:48.334Z,59.54
2018-02-17T11:17:18.187Z,59.68
2018-02-17T11:19:47.905Z,59.14
2018-02-17T11:22:17.477Z,58.83
2018-02-17T11:24:47.734Z,59.25
2018-02-17T11:27:17.238Z,59.41
2018-02-17T11:29:47.304Z,59.61
2018-02-17T11:32:17.068Z,59.86
2018-02-17T11:34:47.748Z,59.75
2018-02-17T11:37:19.592Z,60.04
2018-02-17T11:39:51.218Z,60.25
2018-02-17T11:42:20.665Z,59.28
2018-02-17T11:44:50.471Z,58.90
2018-02-17T11:47:21.922Z,59.92
2018-02-17T11:49:51.763Z,59.96
2018-02-17T11:52:21.504Z,59.94
2018-02-17T11:54:50.914Z,60.10
2018-02-17T11:57:20.315Z,59.72
2018-02-17T11:59:50.615Z,60.38
2018-02-17T12:02:20.538Z,60.26
2018-02-17T12:04:49.995Z,60.10
2018-02-17T12:07:20.167Z,60.78
2018-02-17T12:09:50.661Z,60.80
2018-02-17T12:12:24.099Z,60.27
2018-02-17T12:14:54.043Z,59.73
2018-02-17T12:17:23.722Z,59.66
2018-02-17T12:19:53.409Z,59.62
2018-02-17T12:22:23.222Z,59.59
2018-02-17T12:24:52.960Z,58.95
2018-02-17T12:27:22.782Z,58.98
2018-02-17T12:29:52.480Z,58.51
2018-02-17T12:32:22.371Z,58.63
2018-02-17T12:34:52.459Z,59.02
2018-02-17T12:37:21.949Z,59.23
2018-02-17T12:39:52.314Z,60.39
2018-02-17T12:42:22.068Z,61.21
2018-02-17T12:44:52.276Z,62.11
2018-02-17T12:47:21.770Z,62.10
2018-02-17T12:49:52.603Z,62.18
2018-02-17T12:52:25.018Z,62.77
2018-02-17T12:54:55.614Z,62.63
2018-02-17T12:57:26.179Z,62.36
2018-02-17T12:59:57.151Z,62.11
2018-02-17T13:02:26.700Z,62.20
2018-02-17T13:04:56.200Z,61.38
2018-02-17T13:07:25.769Z,61.22
2018-02-17T13:09:55.779Z,61.09
2018-02-17T13:12:25.989Z,60.95
2018-02-17T13:14:55.414Z,60.23
2018-02-17T13:17:25.129Z,59.57
2018-02-17T13:19:55.862Z,59.40
2018-02-17T13:22:25.915Z,59.18
2018-02-17T13:24:56.863Z,58.83
2018-02-17T13:27:27.140Z,58.86
2018-02-17T13:29:56.723Z,59.01
2018-02-17T13:32:26.621Z,58.30
2018-02-17T13:34:58.196Z,57.93
2018-02-17T13:37:28.074Z,57.73
2018-02-17T13:39:58.497Z,58.37
2018-02-17T13:42:27.959Z,59.07
2018-02-17T13:44:57.465Z,58.89
2018-02-17T13:47:27.817Z,58.61
2018-02-17T13:49:57.470Z,58.72
2018-02-17T13:52:27.041Z,59.20
2018-02-17T13:54:57.706Z,59.62
2018-02-17T13:57:27.765Z,59.54
2018-02-17T13:59:57.279Z,58.89
2018-02-17T14:02:27.079Z,58.91
2018-02-17T14:04:57.934Z,59.06
2018-02-17T14:07:27.583Z,59.22
2018-02-17T14:09:57.834Z,59.34
2018-02-17T14:12:29.596Z,59.11
2018-02-17T14:15:00.095Z,59.29
2018-02-17T14:17:29.682Z,59.27
2018-02-17T14:19:59.964Z,59.35
2018-02-17T14:22:29.712Z,59.29
2018-02-17T14:25:00.460Z,59.21
2018-02-17T14:27:30.008Z,59.24
2018-02-17T14:29:59.522Z,59.21
2018-02-17T14:32:29.360Z,60.12
2018-02-17T14:34:58.840Z,59.89
2018-02-17T14:37:29.627Z,60.20
2018-02-17T14:39:59.190Z,60.13
2018-02-17T14:42:29.011Z,59.85
2018-02-17T14:44:59.017Z,59.77
2018-02-17T14:47:29.416Z,59.66
2018-02-17T14:49:58.913Z,59.78
2018-02-17T14:52:28.955Z,59.82
2018-02-17T14:54:58.701Z,59.62
2018-02-17T14:57:28.249Z,59.43
2018-02-17T14:59:58.113Z,59.55
2018-02-17T15:02:27.558Z,59.62
2018-02-17T15:04:58.344Z,59.68
2018-02-17T15:07:29.464Z,59.93
2018-02-17T15:09:59.593Z,60.13
2018-02-17T15:12:29.605Z,60.57
2018-02-17T15:14:59.113Z,60.75
2018-02-17T15:17:29.825Z,60.49
2018-02-17T15:19:59.355Z,60.44
2018-02-17T15:22:29.165Z,60.78
2018-02-17T15:24:59.033Z,61.12
2018-02-17T15:27:28.464Z,61.42
2018-02-17T15:29:57.933Z,61.61
2018-02-17T15:32:27.521Z,61.64
2018-02-17T15:34:58.609Z,61.70
2018-02-17T15:37:29.033Z,62.33
2018-02-17T15:39:59.529Z,62.94
2018-02-17T15:42:29.833Z,62.89
2018-02-17T15:44:59.370Z,62.71
2018-02-17T15:47:29.276Z,63.08
2018-02-17T15:49:58.912Z,63.08
2018-02-17T15:52:28.884Z,63.20
2018-02-17T15:54:59.177Z,63.32
2018-02-17T15:57:28.633Z,63.56
2018-02-17T15:59:59.104Z,63.83
2018-02-17T16:02:28.935Z,64.12
2018-02-17T16:04:58.740Z,64.24
2018-02-17T16:07:28.483Z,64.53
2018-02-17T16:09:58.251Z,64.58
2018-02-17T16:12:27.913Z,64.65
2018-02-17T16:14:57.398Z,64.53
2018-02-17T16:17:27.202Z,64.76
2018-02-17T16:19:56.952Z,64.81
2018-02-17T16:22:27.326Z,65.06
2018-02-17T16:24:57.198Z,65.19
2018-02-17T16:27:26.666Z,65.11
2018-02-17T16:29:57.649Z,65.05
2018-02-17T16:32:27.264Z,65.43
2018-02-17T16:34:56.835Z,65.65
2018-02-17T16:37:26.337Z,65.56
2018-02-17T16:39:56.092Z,65.66
2018-02-17T16:42:25.585Z,65.79
2018-02-17T16:44:55.071Z,65.84
2018-02-17T16:47:24.893Z,65.94
2018-02-17T16:49:54.532Z,65.91
2018-02-17T16:52:24.012Z,66.28
2018-02-17T16:54:53.797Z,66.27
2018-02-17T16:57:23.275Z,66.24
2018-02-17T16:59:52.783Z,66.42
2018-02-17T17:02:22.719Z,66.52
2018-02-17T17:04:52.146Z,66.84
2018-02-17T17:07:21.796Z,67.30
2018-02-17T17:09:51.688Z,67.28
2018-02-17T17:12:21.745Z,67.41
2018-02-17T17:14:52.086Z,67.64
2018-02-17T17:17:22.992Z,67.82
2018-02-17T17:19:52.516Z,67.89
2018-02-17T17:22:22.662Z,67.79
2018-02-17T17:24:52.346Z,67.83
2018-02-17T17:27:21.821Z,67.99
2018-02-17T17:29:52.457Z,68.14
2018-02-17T17:32:23.450Z,68.34
2018-02-17T17:34:53.083Z,68.54
2018-02-17T17:37:26.294Z,68.69
2018-02-17T17:39:55.896Z,68.95
2018-02-17T17:42:25.681Z,69.09
2018-02-17T17:44:56.097Z,69.24
2018-02-17T17:47:25.543Z,69.40
2018-02-17T17:49:56.621Z,69.68
2018-02-17T17:52:26.472Z,69.79
2018-02-17T17:54:56.009Z,69.65
2018-02-17T17:57:26.493Z,69.57
2018-02-17T17:59:55.957Z,69.54
2018-02-17T18:02:25.427Z,69.70
2018-02-17T18:04:55.263Z,69.84
2018-02-17T18:07:24.725Z,69.95
2018-02-17T18:09:54.165Z,70.04
2018-02-17T18:12:23.928Z,70.00
2018-02-17T18:14:53.401Z,70.04
2018-02-17T18:17:22.883Z,69.93
2018-02-17T18:19:53.349Z,70.03
2018-02-17T18:22:22.777Z,70.00
2018-02-17T18:24:52.272Z,69.97
2018-02-17T18:27:22.035Z,69.98
2018-02-17T18:29:51.764Z,70.13
2018-02-17T18:32:21.709Z,70.16
2018-02-17T18:34:51.481Z,70.11
2018-02-17T18:37:20.957Z,69.95
2018-02-17T18:39:51.334Z,69.89
2018-02-17T18:42:21.140Z,69.97
2018-02-17T18:44:50.562Z,70.12
2018-02-17T18:47:20.090Z,70.21
2018-02-17T18:49:49.846Z,70.25
2018-02-17T18:52:19.377Z,70.13
2018-02-17T18:54:48.818Z,70.17
2018-02-17T18:57:18.661Z,70.19
2018-02-17T18:59:48.548Z,70.17
2018-02-17T19:02:18.010Z,70.02
2018-02-17T19:04:47.927Z,69.93
2018-02-17T19:07:17.560Z,69.71
2018-02-17T19:09:47.099Z,69.73
2018-02-17T19:12:17.816Z,69.80
2018-02-17T19:14:47.377Z,69.88
2018-02-17T19:17:17.509Z,69.76
2018-02-17T19:19:48.204Z,69.62
2018-02-17T19:22:18.628Z,69.66
2018-02-17T19:24:48.381Z,69.74
2018-02-17T19:27:18.627Z,69.87
2018-02-17T19:29:48.078Z,69.92
2018-02-17T19:32:17.577Z,69.98
2018-02-17T19:34:48.265Z,69.86
2018-02-17T19:37:17.874Z,69.95
2018-02-17T19:39:47.334Z,69.97
2018-02-17T19:42:17.995Z,69.93
2018-02-17T19:44:47.552Z,69.90
2018-02-17T19:47:17.054Z,69.85
2018-02-17T19:49:47.700Z,70.36
2018-02-17T19:52:17.161Z,70.31
2018-02-17T19:54:46.732Z,70.28
2018-02-17T19:57:16.432Z,70.18
2018-02-17T19:59:45.860Z,70.08
2018-02-17T20:02:15.857Z,70.26
2018-02-17T20:04:45.376Z,70.11
2018-02-17T20:07:15.305Z,70.15
2018-02-17T20:09:45.228Z,70.07
2018-02-17T20:12:14.791Z,70.04
2018-02-17T20:14:44.281Z,70.29
2018-02-17T20:17:13.916Z,70.51
2018-02-17T20:19:43.410Z,70.64
2018-02-17T20:22:13.311Z,70.88
2018-02-17T20:24:43.153Z,71.04
2018-02-17T20:27:13.439Z,71.26
2018-02-17T20:29:42.976Z,71.60
2018-02-17T20:32:12.714Z,71.81
2018-02-17T20:34:42.523Z,71.88
2018-02-17T20:37:12.440Z,72.38
2018-02-17T20:39:41.898Z,72.41
2018-02-17T20:42:11.361Z,72.30
2018-02-17T20:44:41.270Z,72.21
2018-02-17T20:47:10.720Z,72.35
2018-02-17T20:49:40.144Z,72.60
2018-02-17T20:52:09.641Z,72.67
2018-02-17T20:54:39.156Z,72.63
2018-02-17T20:57:08.631Z,72.74
2018-02-17T20:59:38.736Z,72.80
2018-02-17T21:02:08.842Z,72.72
2018-02-17T21:04:38.503Z,72.53
2018-02-17T21:07:08.766Z,72.60
2018-02-17T21:09:38.339Z,72.52
2018-02-17T21:12:07.838Z,72.52
2018-02-17T21:14:38.068Z,72.50
2018-02-17T21:17:07.497Z,72.44
2018-02-17T21:19:37.129Z,72.40
2018-02-17T21:22:06.575Z,72.34
2018-02-17T21:24:35.974Z,72.17
2018-02-17T21:27:07.332Z,72.08
2018-02-17T21:32:05.131Z,71.73
2018-02-17T21:34:34.940Z,71.55
2018-02-17T21:37:04.488Z,71.39
2018-02-17T21:39:33.943Z,71.17
2018-02-17T21:42:03.649Z,70.97
2018-02-17T21:44:33.129Z,70.81
2018-02-17T21:47:02.667Z,70.64
2018-02-17T21:49:32.443Z,70.68
2018-02-17T21:52:01.978Z,70.51
2018-02-17T21:54:31.597Z,70.32
2018-02-17T21:57:01.059Z,70.15
2018-02-17T21:59:30.869Z,69.77
2018-02-17T22:02:00.375Z,69.73
2018-02-17T22:04:30.229Z,69.49
2018-02-17T22:07:00.501Z,69.23
2018-02-17T22:09:30.508Z,68.97
2018-02-17T22:12:00.320Z,68.86
2018-02-17T22:14:29.851Z,68.83
2018-02-17T22:16:59.731Z,68.68
2018-02-17T22:19:29.209Z,68.60
2018-02-17T22:21:58.707Z,68.42
2018-02-17T22:24:28.451Z,68.58
2018-02-17T22:26:57.879Z,68.51
2018-02-17T22:29:27.382Z,68.21
2018-02-17T22:31:57.223Z,68.04
2018-02-17T22:34:27.318Z,67.62
2018-02-17T22:36:56.877Z,67.25
2018-02-17T22:39:27.526Z,67.11
2018-02-17T22:41:57.849Z,66.89
2018-02-17T22:44:27.998Z,66.92
2018-02-17T22:46:58.188Z,66.93
2018-02-17T22:49:28.657Z,66.77
2018-02-17T22:51:58.395Z,66.86
2018-02-17T22:54:28.851Z,66.88
2018-02-17T22:56:59.500Z,66.60
2018-02-17T22:59:29.863Z,66.47
2018-02-17T23:02:01.249Z,66.51
2018-02-17T23:04:31.110Z,66.81
2018-02-17T23:07:01.251Z,66.80
2018-02-17T23:09:31.838Z,66.71
2018-02-17T23:12:01.745Z,66.83
2018-02-17T23:14:31.385Z,66.41
2018-02-17T23:17:00.866Z,66.38
2018-02-17T23:19:30.844Z,66.14
2018-02-17T23:22:01.698Z,65.87
2018-02-17T23:24:32.145Z,66.15
2018-02-17T23:27:02.531Z,66.15
2018-02-17T23:29:31.995Z,66.12
2018-02-17T23:32:01.868Z,65.87
2018-02-17T23:34:32.108Z,65.64
2018-02-17T23:37:01.707Z,65.81
2018-02-17T23:39:31.640Z,65.66
2018-02-17T23:42:01.139Z,65.49
2018-02-17T23:44:30.687Z,65.08
2018-02-17T23:47:00.917Z,65.05
2018-02-17T23:49:30.476Z,64.97
2018-02-17T23:52:00.116Z,64.84
2018-02-17T23:54:30.081Z,64.74
2018-02-17T23:57:00.913Z,64.88
2018-02-17T23:59:30.950Z,64.97
